createdAt,value
2018-04-11T00:01:18.348Z,7.93
2018-04-11T00:03:45.776Z,6.90
2018-04-11T00:06:13.200Z,6.83
2018-04-11T00:08:40.632Z,4.73
2018-04-11T00:11:08.056Z,4.77
2018-04-11T00:13:35.480Z,4.30
2018-04-11T00:16:02.921Z,5.63
2018-04-11T00:18:30.357Z,4.00
2018-04-11T00:20:57.812Z,8.30
2018-04-11T00:23:25.247Z,6.00
2018-04-11T00:25:52.680Z,6.07
2018-04-11T00:28:20.519Z,6.70
2018-04-11T00:30:47.938Z,6.53
2018-04-11T00:33:15.376Z,9.13
2018-04-11T00:35:42.803Z,9.43
2018-04-11T00:38:10.631Z,7.33
2018-04-11T00:40:38.067Z,7.40
2018-04-11T00:43:05.516Z,7.27
2018-04-11T00:45:32.982Z,8.97
2018-04-11T00:48:00.392Z,7.90
2018-04-11T00:50:28.238Z,6.80
2018-04-11T00:53:07.501Z,7.20
2018-04-11T00:55:34.928Z,8.47
2018-04-11T00:58:02.348Z,6.70
2018-04-11T01:00:29.787Z,5.68
2018-04-11T01:02:57.219Z,5.93
2018-04-11T01:05:25.048Z,8.87
2018-04-11T01:07:52.480Z,5.30
2018-04-11T01:10:19.909Z,4.40
2018-04-11T01:12:47.327Z,4.83
2018-04-11T01:15:15.368Z,4.50
2018-04-11T01:17:42.804Z,4.87
2018-04-11T01:20:10.232Z,6.03
2018-04-11T01:22:38.069Z,6.40
2018-04-11T01:25:05.497Z,5.97
2018-04-11T01:27:32.923Z,5.97
2018-04-11T01:30:00.351Z,7.10
2018-04-11T01:32:27.782Z,8.80
2018-04-11T01:34:55.219Z,5.70
2018-04-11T01:37:22.643Z,8.90
2018-04-11T01:39:50.495Z,8.20
2018-04-11T01:42:18.315Z,7.63
2018-04-11T01:44:45.743Z,5.47
2018-04-11T01:47:13.174Z,7.13
2018-04-11T01:49:40.599Z,7.93
2018-04-11T01:52:08.039Z,6.47
2018-04-11T01:54:35.480Z,7.87
2018-04-11T01:57:02.908Z,7.10
2018-04-11T01:59:30.749Z,11.00
2018-04-11T02:01:58.182Z,9.60
2018-04-11T02:04:25.631Z,9.10
2018-04-11T02:06:53.063Z,7.80
2018-04-11T02:09:20.504Z,10.07
2018-04-11T02:11:48.147Z,13.30
2018-04-11T02:14:15.571Z,15.70
2018-04-11T02:16:43.004Z,10.50
2018-04-11T02:19:10.428Z,14.13
2018-04-11T02:21:38.264Z,12.50
2018-04-11T02:24:05.701Z,12.00
2018-04-11T02:26:33.149Z,13.60
2018-04-11T02:29:00.570Z,11.60
2018-04-11T02:31:28.023Z,13.53
2018-04-11T02:33:55.845Z,13.73
2018-04-11T02:36:23.275Z,15.10
2018-04-11T02:38:50.707Z,11.80
2018-04-11T02:41:18.528Z,13.73
2018-04-11T02:43:45.971Z,12.03
2018-04-11T02:46:13.404Z,12.90
2018-04-11T02:48:40.836Z,11.47
2018-04-11T02:51:08.264Z,11.93
2018-04-11T02:53:35.713Z,10.50
2018-04-11T02:56:03.127Z,11.13
2018-04-11T02:58:30.582Z,16.67
2018-04-11T03:00:58.017Z,12.83
2018-04-11T03:03:25.845Z,13.47
2018-04-11T03:05:53.273Z,12.97
2018-04-11T03:08:20.706Z,14.50
2018-04-11T03:10:48.143Z,14.13
2018-04-11T03:13:15.599Z,16.07
2018-04-11T03:15:43.039Z,15.83
2018-04-11T03:18:10.467Z,15.50
2018-04-11T03:20:37.900Z,19.43
2018-04-11T03:23:05.318Z,16.50
2018-04-11T03:25:33.143Z,13.77
2018-04-11T03:28:00.594Z,17.23
2018-04-11T03:30:28.020Z,14.57
2018-04-11T03:32:55.442Z,13.37
2018-04-11T03:35:22.878Z,16.27
2018-04-11T03:37:50.311Z,14.03
2018-04-11T03:40:17.799Z,23.10
2018-04-11T03:42:45.239Z,17.17
2018-04-11T03:45:12.689Z,22.30
2018-04-11T03:47:40.146Z,18.10
2018-04-11T03:50:07.567Z,17.57
2018-04-11T03:52:35.395Z,24.63
2018-04-11T03:55:02.839Z,19.10
2018-04-11T03:57:30.308Z,20.03
2018-04-11T03:59:57.779Z,20.77
2018-04-11T04:02:25.221Z,20.63
2018-04-11T04:04:52.658Z,20.67
2018-04-11T04:07:20.097Z,22.57
2018-04-11T04:09:47.532Z,18.50
2018-04-11T04:12:14.955Z,17.50
2018-04-11T04:14:54.075Z,20.07
2018-04-11T04:20:36.454Z,19.73
2018-04-11T04:23:03.894Z,23.27
2018-04-11T04:25:31.772Z,19.37
2018-04-11T04:27:59.199Z,20.40
2018-04-11T04:30:26.640Z,17.80
2018-04-11T04:32:54.072Z,22.00
2018-04-11T04:35:21.516Z,25.63
2018-04-11T04:37:48.959Z,24.97
2018-04-11T04:40:16.439Z,25.37
2018-04-11T04:42:43.871Z,21.97
2018-04-11T04:45:11.300Z,25.20
2018-04-11T04:50:13.039Z,23.80
2018-04-11T04:52:40.491Z,20.53
2018-04-11T04:55:07.917Z,21.30
2018-04-11T04:57:35.356Z,21.33
2018-04-11T05:00:02.790Z,25.57
2018-04-11T05:02:30.228Z,20.97
2018-04-11T05:04:57.667Z,24.77
2018-04-11T05:07:25.122Z,26.33
2018-04-11T05:09:52.600Z,30.80
2018-04-11T05:12:26.884Z,22.90
2018-04-11T05:31:23.160Z,25.03
2018-04-11T05:33:50.599Z,32.03
2018-04-11T05:36:18.041Z,25.27
2018-04-11T05:38:45.483Z,28.50
2018-04-11T05:41:12.918Z,26.23
2018-04-11T05:43:40.362Z,30.07
2018-04-11T05:46:08.197Z,23.70
2018-04-11T05:48:35.642Z,28.60
2018-04-11T05:51:03.082Z,29.77
2018-04-11T05:53:30.516Z,31.77
2018-04-11T05:55:58.663Z,30.23
2018-04-11T05:58:26.099Z,27.00
2018-04-11T06:00:53.536Z,35.60
2018-04-11T06:03:20.969Z,26.63
2018-04-11T06:05:48.391Z,24.50
2018-04-11T06:08:15.835Z,26.73
2018-04-11T06:10:43.263Z,29.77
2018-04-11T06:13:10.712Z,30.50
2018-04-11T06:15:38.161Z,27.10
2018-04-11T06:18:05.596Z,23.97
2018-04-11T06:20:33.071Z,29.23
2018-04-11T06:23:00.555Z,27.60
2018-04-11T06:25:27.957Z,30.27
2018-04-11T06:27:55.412Z,31.50
2018-04-11T06:30:22.815Z,32.20
2018-04-11T06:32:50.270Z,27.65
2018-04-11T06:35:17.706Z,30.83
2018-04-11T06:37:45.131Z,31.15
2018-04-11T06:40:12.967Z,27.03
2018-04-11T06:42:40.398Z,31.27
2018-04-11T06:45:07.856Z,33.83
2018-04-11T06:47:35.277Z,31.67
2018-04-11T06:50:02.711Z,31.30
2018-04-11T06:52:30.147Z,29.93
2018-04-11T06:54:57.589Z,22.47
2018-04-11T06:57:25.038Z,27.87
2018-04-11T06:59:52.479Z,29.43
2018-04-11T07:02:19.908Z,28.23
2018-04-11T07:04:47.751Z,29.37
2018-04-11T07:07:15.207Z,27.97
2018-04-11T07:09:42.639Z,23.50
2018-04-11T07:12:10.083Z,28.27
2018-04-11T07:14:37.515Z,24.73
2018-04-11T07:17:04.960Z,22.57
2018-04-11T07:19:32.388Z,30.03
2018-04-11T07:21:59.827Z,22.93
2018-04-11T07:24:27.264Z,24.40
2018-04-11T07:26:54.697Z,25.40
2018-04-11T07:29:22.125Z,26.53
2018-04-11T07:31:49.555Z,24.30
2018-04-11T07:34:16.992Z,27.20
2018-04-11T07:36:44.431Z,25.77
2018-04-11T07:39:11.855Z,22.40
2018-04-11T07:41:39.704Z,23.17
2018-04-11T07:44:07.151Z,22.30
2018-04-11T07:46:34.615Z,25.07
2018-04-11T07:49:02.971Z,20.70
2018-04-11T07:51:30.416Z,27.07
2018-04-11T07:53:57.850Z,15.60
2018-04-11T07:56:25.290Z,23.57
2018-04-11T07:58:52.724Z,22.90
2018-04-11T08:01:20.171Z,17.97
2018-04-11T08:03:47.632Z,15.10
2018-04-11T08:06:15.106Z,17.50
2018-04-11T08:08:42.572Z,15.17
2018-04-11T08:11:10.016Z,16.90
2018-04-11T08:13:37.474Z,14.10
2018-04-11T08:16:04.900Z,18.87
2018-04-11T08:18:32.338Z,14.97
2018-04-11T08:20:59.771Z,17.67
2018-04-11T08:23:28.646Z,18.40
2018-04-11T08:25:56.479Z,17.10
2018-04-11T08:28:23.919Z,15.33
2018-04-11T08:30:51.369Z,15.10
2018-04-11T08:33:18.823Z,17.53
2018-04-11T08:35:46.255Z,16.40
2018-04-11T08:38:13.695Z,14.87
2018-04-11T08:40:41.544Z,18.50
2018-04-11T08:43:08.974Z,21.40
2018-04-11T08:45:36.439Z,16.63
2018-04-11T08:48:03.892Z,17.00
2018-04-11T08:50:31.328Z,14.73
2018-04-11T08:52:58.808Z,17.03
2018-04-11T08:55:26.251Z,18.50
2018-04-11T08:57:53.686Z,19.67
2018-04-11T09:00:21.130Z,17.53
2018-04-11T09:02:48.567Z,19.27
2018-04-11T09:05:17.050Z,17.70
2018-04-11T09:07:44.487Z,18.30
2018-04-11T09:10:11.959Z,15.40
2018-04-11T09:12:39.805Z,15.30
2018-04-11T09:15:07.251Z,15.90
2018-04-11T09:17:34.691Z,20.80
2018-04-11T09:20:02.134Z,16.90
2018-04-11T09:22:29.596Z,19.23
2018-04-11T09:24:57.039Z,19.73
2018-04-11T09:27:24.496Z,20.83
2018-04-11T09:29:51.953Z,22.03
2018-04-11T09:32:19.412Z,21.30
2018-04-11T09:34:46.879Z,16.60
2018-04-11T09:37:14.331Z,16.83
2018-04-11T09:39:41.771Z,16.10
2018-04-11T09:42:09.211Z,16.30
2018-04-11T09:44:36.658Z,14.17
2018-04-11T09:47:04.499Z,14.60
2018-04-11T09:49:31.952Z,15.93
2018-04-11T09:51:59.474Z,17.47
2018-04-11T09:54:27.431Z,17.60
2018-04-11T09:56:54.874Z,12.97
2018-04-11T09:59:22.703Z,14.97
2018-04-11T10:01:50.140Z,14.87
2018-04-11T10:04:17.586Z,16.87
2018-04-11T10:06:45.024Z,14.03
2018-04-11T10:09:12.479Z,19.83
2018-04-11T10:11:39.925Z,14.00
2018-04-11T10:14:07.383Z,16.50
2018-04-11T10:16:35.228Z,16.83
2018-04-11T10:19:02.699Z,14.23
2018-04-11T10:21:30.151Z,15.70
2018-04-11T10:23:58.220Z,13.83
2018-04-11T10:26:27.057Z,12.10
2018-04-11T10:28:55.027Z,13.00
2018-04-11T10:31:22.483Z,17.70
2018-04-11T10:33:49.932Z,14.90
2018-04-11T10:36:17.398Z,14.23
2018-04-11T10:38:44.835Z,14.03
2018-04-11T10:41:12.275Z,14.23
2018-04-11T10:43:39.708Z,15.33
2018-04-11T10:46:07.159Z,14.00
2018-04-11T10:48:34.599Z,15.47
2018-04-11T10:51:02.048Z,14.13
2018-04-11T10:53:29.488Z,15.83
2018-04-11T10:55:56.922Z,14.97
2018-04-11T10:58:24.360Z,17.63
2018-04-11T11:00:52.240Z,14.60
2018-04-11T11:03:19.659Z,13.50
2018-04-11T11:05:47.091Z,14.97
2018-04-11T11:08:14.871Z,13.13
2018-04-11T11:10:42.307Z,14.30
2018-04-11T11:13:09.748Z,13.13
2018-04-11T11:15:37.205Z,11.10
2018-04-11T11:18:04.647Z,15.27
2018-04-11T11:20:32.471Z,12.43
2018-04-11T11:22:59.923Z,12.80
2018-04-11T11:25:27.368Z,10.60
2018-04-11T11:27:54.833Z,12.93
2018-04-11T11:30:22.275Z,9.80
2018-04-11T11:32:49.719Z,9.90
2018-04-11T11:35:17.910Z,9.30
2018-04-11T11:37:45.348Z,12.37
2018-04-11T11:40:12.780Z,15.00
2018-04-11T11:42:40.248Z,8.20
2018-04-11T11:45:07.667Z,9.20
2018-04-11T11:47:35.108Z,10.60
2018-04-11T11:50:03.674Z,9.43
2018-04-11T11:52:31.109Z,13.60
2018-04-11T11:54:58.525Z,8.60
2018-04-11T11:57:26.376Z,8.87
2018-04-11T11:59:53.798Z,10.27
2018-04-11T12:02:21.242Z,7.73
2018-04-11T12:04:48.662Z,7.13
2018-04-11T12:07:16.091Z,6.80
2018-04-11T12:09:43.519Z,5.90
2018-04-11T12:12:10.967Z,12.20
2018-04-11T12:14:38.406Z,7.03
2018-04-11T12:17:06.655Z,12.33
2018-04-11T12:19:34.863Z,6.97
2018-04-11T12:22:02.316Z,6.70
2018-04-11T12:24:29.742Z,8.30
2018-04-11T12:26:57.213Z,6.97
2018-04-11T12:29:25.023Z,5.30
2018-04-11T12:31:52.466Z,5.73
2018-04-11T12:34:19.899Z,7.47
2018-04-11T12:36:47.718Z,7.10
2018-04-11T12:39:15.149Z,6.30
2018-04-11T12:41:42.596Z,5.87
2018-04-11T12:44:10.021Z,5.50
2018-04-11T12:46:37.452Z,5.63
2018-04-11T12:49:04.882Z,8.60
2018-04-11T12:51:32.319Z,5.57
2018-04-11T12:53:59.757Z,5.30
2018-04-11T12:56:27.604Z,5.60
2018-04-11T12:58:55.059Z,5.53
2018-04-11T13:01:22.507Z,4.87
2018-04-11T13:03:49.934Z,5.20
2018-04-11T13:06:17.363Z,6.03
2018-04-11T13:08:44.794Z,7.40
2018-04-11T13:11:12.232Z,6.83
2018-04-11T13:13:39.700Z,5.17
2018-04-11T13:16:07.132Z,6.13
2018-04-11T13:18:34.603Z,5.10
2018-04-11T13:21:02.048Z,4.90
2018-04-11T13:23:29.509Z,4.33
2018-04-11T13:25:56.967Z,4.83
2018-04-11T13:28:24.664Z,5.57
2018-04-11T13:30:52.116Z,4.47
2018-04-11T13:33:19.580Z,5.80
2018-04-11T13:35:47.438Z,5.60
2018-04-11T13:38:14.904Z,4.50
2018-04-11T13:40:42.360Z,4.67
2018-04-11T13:43:09.820Z,4.87
2018-04-11T13:45:37.269Z,4.90
2018-04-11T13:48:05.128Z,4.70
2018-04-11T13:50:32.568Z,5.13
2018-04-11T13:53:00.048Z,4.83
2018-04-11T13:55:27.499Z,5.70
2018-04-11T13:57:54.956Z,5.90
2018-04-11T14:00:22.400Z,4.30
2018-04-11T14:02:49.868Z,7.10
2018-04-11T14:05:17.717Z,5.53
2018-04-11T14:07:45.178Z,7.37
2018-04-11T14:10:12.634Z,4.83
2018-04-11T14:12:40.094Z,5.57
2018-04-11T14:15:07.545Z,5.87
2018-04-11T14:17:34.995Z,5.70
2018-04-11T14:20:02.453Z,6.67
2018-04-11T14:22:29.914Z,6.70
2018-04-11T14:24:57.372Z,6.60
2018-04-11T14:27:24.855Z,6.53
2018-04-11T14:29:52.300Z,5.30
2018-04-11T14:32:20.163Z,4.80
2018-04-11T14:37:21.608Z,5.80
2018-04-11T14:39:49.068Z,5.60
2018-04-11T14:42:16.533Z,4.80
2018-04-11T14:44:43.979Z,3.97
2018-04-11T14:47:11.452Z,3.23
2018-04-11T14:49:38.907Z,4.03
2018-04-11T14:52:06.366Z,4.67
2018-04-11T14:54:33.824Z,4.10
2018-04-11T14:57:01.313Z,3.40
2018-04-11T14:59:28.776Z,3.50
2018-04-11T15:01:56.237Z,4.20
2018-04-11T15:04:23.709Z,3.90
2018-04-11T15:06:51.160Z,3.23
2018-04-11T15:09:18.617Z,3.43
2018-04-11T15:11:46.084Z,3.43
2018-04-11T15:14:13.548Z,4.50
2018-04-11T15:16:41.005Z,3.60
2018-04-11T15:19:08.472Z,3.40
2018-04-11T15:21:35.960Z,3.60
2018-04-11T15:24:03.403Z,2.67
2018-04-11T15:26:30.865Z,2.70
2018-04-11T15:28:58.742Z,3.93
2018-04-11T15:31:26.600Z,3.03
2018-04-11T15:33:54.063Z,3.00
2018-04-11T15:36:21.945Z,3.17
2018-04-11T15:38:49.412Z,2.30
2018-04-11T15:41:16.868Z,4.30
2018-04-11T15:43:44.340Z,2.73
2018-04-11T15:49:22.012Z,2.90
2018-04-11T15:51:49.477Z,2.90
2018-04-11T15:54:16.939Z,2.67
2018-04-11T15:56:44.778Z,3.53
2018-04-11T15:59:12.263Z,4.10
2018-04-11T16:01:39.720Z,2.93
2018-04-11T16:04:07.135Z,3.13
2018-04-11T16:06:34.592Z,4.30
2018-04-11T16:09:02.067Z,3.23
2018-04-11T16:11:29.500Z,2.03
2018-04-11T16:13:56.967Z,2.87
2018-04-11T16:16:24.416Z,11.70
2018-04-11T16:18:51.908Z,2.10
2018-04-11T16:21:19.340Z,3.10
2018-04-11T16:23:46.798Z,10.63
2018-04-11T16:26:14.223Z,4.03
2018-04-11T16:28:41.701Z,32.77
2018-04-11T16:31:09.144Z,2.43
2018-04-11T16:33:36.624Z,2.13
2018-04-11T16:36:04.075Z,2.00
2018-04-11T16:38:31.551Z,1.90
2018-04-11T16:40:58.988Z,2.60
2018-04-11T16:43:26.459Z,3.17
2018-04-11T16:45:54.081Z,2.60
2018-04-11T16:48:21.521Z,3.57
2018-04-11T16:50:48.985Z,3.30
2018-04-11T16:53:16.464Z,2.60
2018-04-11T16:55:43.911Z,2.70
2018-04-11T16:58:11.356Z,2.50
2018-04-11T17:00:38.823Z,2.27
2018-04-11T17:03:06.255Z,4.00
2018-04-11T17:05:33.687Z,2.87
2018-04-11T17:08:01.144Z,2.17
2018-04-11T17:10:28.571Z,5.40
2018-04-11T17:12:56.025Z,2.40
2018-04-11T17:15:23.456Z,3.67
2018-04-11T17:17:58.803Z,3.60
2018-04-11T17:23:45.177Z,3.03
2018-04-11T17:26:38.840Z,2.63
2018-04-11T17:29:19.863Z,2.90
2018-04-11T17:31:47.319Z,2.17
2018-04-11T17:34:14.767Z,3.03
2018-04-11T17:36:42.224Z,2.80
2018-04-11T17:39:09.667Z,2.70
2018-04-11T17:41:37.091Z,3.20
2018-04-11T17:44:04.530Z,2.43
2018-04-11T17:46:31.972Z,2.60
2018-04-11T17:48:59.415Z,3.47
2018-04-11T17:51:26.847Z,3.00
2018-04-11T17:53:54.667Z,2.63
2018-04-11T17:56:22.100Z,2.77
2018-04-11T17:58:49.542Z,2.33
2018-04-11T18:01:17.206Z,5.00
2018-04-11T18:03:44.664Z,2.70
2018-04-11T18:06:12.104Z,4.60
2018-04-11T18:08:39.583Z,2.70
2018-04-11T18:11:07.000Z,2.03
2018-04-11T18:13:34.835Z,2.20
2018-04-11T18:16:02.285Z,2.73
2018-04-11T18:18:29.708Z,3.17
2018-04-11T18:20:57.155Z,3.20
2018-04-11T18:23:24.607Z,3.03
2018-04-11T18:25:52.038Z,2.77
2018-04-11T18:28:19.467Z,2.13
2018-04-11T18:30:46.901Z,2.30
2018-04-11T18:33:14.370Z,2.53
2018-04-11T18:35:41.807Z,4.10
2018-04-11T18:38:09.236Z,2.33
2018-04-11T18:40:37.055Z,5.13
2018-04-11T18:43:04.521Z,2.07
2018-04-11T18:45:31.968Z,4.10
2018-04-11T18:47:59.378Z,3.00
2018-04-11T18:50:26.860Z,3.50
2018-04-11T18:52:54.272Z,4.50
2018-04-11T18:55:21.755Z,2.80
2018-04-11T18:57:49.212Z,2.60
2018-04-11T19:00:16.664Z,2.37
2018-04-11T19:02:44.091Z,3.30
2018-04-11T19:05:11.531Z,2.60
2018-04-11T19:07:38.956Z,3.20
2018-04-11T19:10:06.395Z,2.93
2018-04-11T19:12:33.823Z,4.70
2018-04-11T19:15:01.647Z,3.30
2018-04-11T19:17:29.072Z,2.20
2018-04-11T19:19:56.513Z,2.27
2018-04-11T19:22:24.106Z,2.73
2018-04-11T19:24:52.079Z,2.80
2018-04-11T19:27:19.528Z,3.97
2018-04-11T19:29:46.980Z,3.40
2018-04-11T19:32:14.396Z,3.63
2018-04-11T19:34:41.830Z,3.33
2018-04-11T19:37:09.260Z,4.50
2018-04-11T19:39:36.696Z,2.50
2018-04-11T19:42:04.131Z,3.27
2018-04-11T19:44:31.963Z,5.13
2018-04-11T19:46:59.415Z,2.80
2018-04-11T19:49:26.864Z,3.60
2018-04-11T19:51:54.288Z,3.70
2018-04-11T19:54:21.752Z,3.47
2018-04-11T19:56:49.179Z,3.80
2018-04-11T19:59:16.631Z,4.00
2018-04-11T20:01:44.047Z,3.27
2018-04-11T20:04:11.499Z,4.20
2018-04-11T20:06:38.922Z,2.87
2018-04-11T20:09:06.368Z,3.10
2018-04-11T20:11:34.192Z,4.27
2018-04-11T20:14:01.630Z,3.20
2018-04-11T20:16:29.050Z,4.10
2018-04-11T20:18:56.494Z,3.20
2018-04-11T20:21:23.922Z,4.07
2018-04-11T20:23:51.363Z,3.87
2018-04-11T20:26:18.805Z,3.00
2018-04-11T20:28:46.237Z,6.03
2018-04-11T20:31:14.064Z,3.83
2018-04-11T20:33:41.494Z,3.37
2018-04-11T20:36:08.938Z,3.37
2018-04-11T20:38:36.368Z,2.80
2018-04-11T20:41:03.805Z,4.90
2018-04-11T20:43:31.244Z,3.87
2018-04-11T20:45:58.775Z,3.70
2018-04-11T20:48:26.231Z,2.67
2018-04-11T20:50:53.666Z,4.30
2018-04-11T20:53:21.108Z,2.87
2018-04-11T20:55:48.551Z,2.40
2018-04-11T20:58:15.974Z,3.60
2018-04-11T21:00:50.702Z,3.30
2018-04-11T21:03:19.092Z,6.13
2018-04-11T21:05:49.139Z,2.30
2018-04-11T21:08:17.147Z,2.97
2018-04-11T21:10:55.304Z,3.20
2018-04-11T21:13:26.595Z,2.90
2018-04-11T21:15:55.357Z,2.57
2018-04-11T21:18:26.426Z,2.23
2018-04-11T21:20:56.659Z,4.20
2018-04-11T21:23:27.261Z,2.60
2018-04-11T21:25:57.356Z,2.50
2018-04-11T21:28:26.028Z,2.90
2018-04-11T21:31:11.620Z,3.83
2018-04-11T21:33:42.802Z,2.90
2018-04-11T21:36:12.516Z,3.17
2018-04-11T21:38:44.994Z,3.03
2018-04-11T21:41:20.314Z,2.90
2018-04-11T21:43:49.059Z,2.40
2018-04-11T21:46:19.298Z,2.47
2018-04-11T21:48:52.241Z,3.30
2018-04-11T21:51:21.851Z,4.10
2018-04-11T21:53:52.659Z,4.30
2018-04-11T21:56:24.197Z,2.37
2018-04-11T21:58:55.308Z,2.63
2018-04-11T22:01:23.664Z,3.07
2018-04-11T22:03:52.344Z,2.53
2018-04-11T22:06:23.076Z,3.00
2018-04-11T22:08:54.949Z,3.23
2018-04-11T22:11:23.809Z,3.10
2018-04-11T22:13:59.268Z,3.03
2018-04-11T22:16:28.781Z,3.27
2018-04-11T22:19:01.940Z,2.83
2018-04-11T22:21:36.076Z,2.37
2018-04-11T22:24:08.520Z,3.67
2018-04-11T22:26:37.105Z,2.27
2018-04-11T22:29:07.489Z,2.83
2018-04-11T22:31:40.778Z,3.10
2018-04-11T22:34:10.815Z,2.43
2018-04-11T22:36:39.792Z,4.40
2018-04-11T22:39:09.356Z,3.57
2018-04-11T22:41:45.674Z,4.03
2018-04-11T22:44:15.660Z,2.60
2018-04-11T22:46:43.183Z,3.57
2018-04-11T22:49:14.353Z,3.07
2018-04-11T22:51:41.794Z,3.43
2018-04-11T22:54:09.231Z,3.27
2018-04-11T22:56:36.669Z,3.83
2018-04-11T22:59:13.883Z,4.13
2018-04-11T23:01:41.376Z,3.20
2018-04-11T23:04:13.607Z,3.73
2018-04-11T23:06:45.177Z,4.17
2018-04-11T23:09:39.585Z,5.30
2018-04-11T23:12:20.628Z,3.30
2018-04-11T23:14:48.079Z,3.10
2018-04-11T23:17:15.506Z,4.57
2018-04-11T23:19:43.338Z,4.50
2018-04-11T23:22:10.775Z,7.00
2018-04-11T23:24:38.266Z,4.83
2018-04-11T23:27:08.900Z,5.90
2018-04-11T23:29:43.550Z,4.60
2018-04-11T23:32:11.935Z,4.77
2018-04-11T23:34:48.254Z,6.57
2018-04-11T23:37:18.365Z,5.30
2018-04-11T23:39:51.831Z,4.80
2018-04-11T23:42:25.874Z,5.00
2018-04-11T23:47:35.196Z,4.87
2018-04-11T23:50:07.356Z,4.73
2018-04-11T23:52:43.060Z,8.50
2018-04-11T23:55:14.553Z,4.77
